Terminal Aerodrome Forecast
Issued by NWS

Home | Current Version | Previous Version | Text Only | Print | Product List | Glossary On
Versions: 1 2 3 4 5 6 7 8 9 10 11 12 13
568
FTUS42 KMLB 230535
TAFFPR
TAF
KFPR 230535Z 2306/2406 05009KT P6SM SCT030 BKN060
     FM231200 06011KT P6SM VCSH SCT025 BKN040
      TEMPO 2312/2315 5SM SHRA BKN025
     FM231500 07014G23KT P6SM VCSH BKN040
      TEMPO 2315/2319 3SM SHRA BKN025
     FM231900 08015G24KT P6SM VCSH BKN040
      TEMPO 2319/2322 5SM SHRA BKN025
     FM240000 07013G21KT P6SM VCSH SCT030 BKN040=

USA.gov is the U.S. government's official web portal to all federal, state and local government web resources and services.